Time;durP1;ratioP1;P1;durP2;ratioP2;P2;SDS_P1;SDS_P2;PMS_P1;PMS_P2;Temp;Humidity;BMP_temperature;BMP_pressure;BME280_temperature;BME280_humidity;BME280_pressure;Samples;Min_cycle;Max_cycle;Signal;HPM_P1;HPM_P2
2023/01/06 00:20:21;;;;;;;4.43;4.00;;;2.90;93.90;;;;;;4736488;29;20207;-82
2023/01/06 00:40:48;;;;;;;6.63;5.00;;;2.90;93.90;;;;;;4793265;29;20208;-82
2023/01/06 01:12:08;;;;;;;8.40;5.60;;;2.80;94.00;;;;;;4731889;29;20643;-80
2023/01/06 01:15:43;;;;;;;6.63;5.40;;;2.80;93.20;;;;;;4662524;29;20380;-84
2023/01/06 01:41:42;;;;;;;4.93;4.43;;;2.70;94.30;;;;;;4674397;30;20262;-84
2023/01/06 02:17:13;;;;;;;7.57;6.40;;;2.50;93.20;;;;;;4764851;29;20194;-81
2023/01/06 02:57:22;;;;;;;3.30;3.00;;;2.20;92.30;;;;;;4707312;29;20525;-83
2023/01/06 03:27:58;;;;;;;4.80;4.40;;;2.10;90.20;;;;;;4699303;29;21353;-81
2023/01/06 03:58:07;;;;;;;5.70;4.67;;;2.10;90.70;;;;;;5870384;23;20215;-83
2023/01/06 04:18:49;;;;;;;6.70;6.00;;;2.10;91.80;;;;;;4701222;29;20226;-83
2023/01/06 04:44:16;;;;;;;7.33;6.10;;;2.00;92.50;;;;;;4490941;31;20245;-82
2023/01/06 05:09:28;;;;;;;5.97;5.37;;;2.20;91.30;;;;;;4442126;31;20736;-82
2023/01/06 05:34:44;;;;;;;6.00;4.93;;;2.00;91.40;;;;;;4543701;30;20827;-82
2023/01/06 06:10:08;;;;;;;5.50;4.97;;;1.70;90.60;;;;;;4656286;30;20228;-83
2023/01/06 06:40:38;;;;;;;8.07;7.30;;;1.30;92.10;;;;;;4674799;29;20911;-82
2023/01/06 07:01:04;;;;;;;7.47;6.57;;;1.40;92.20;;;;;;4639209;30;20292;-83
2023/01/06 07:26:18;;;;;;;8.33;7.17;;;1.30;92.80;;;;;;4631400;30;20335;-80
2023/01/06 07:51:30;;;;;;;7.97;6.10;;;1.30;92.20;;;;;;4593163;30;20300;-82
2023/01/06 08:12:02;;;;;;;7.67;6.13;;;1.40;91.80;;;;;;4649498;30;20489;-83
2023/01/06 08:32:02;;;;;;;7.90;6.17;;;1.60;90.70;;;;;;4590069;30;20229;-80
2023/01/06 08:57:44;;;;;;;8.80;6.40;;;1.60;91.30;;;;;;4646874;30;20209;-85
2023/01/06 09:17:46;;;;;;;7.50;6.73;;;1.80;90.90;;;;;;4657721;29;20213;-84
2023/01/06 09:52:48;;;;;;;7.80;6.90;;;2.30;90.50;;;;;;4617069;30;20506;-82
2023/01/06 10:18:21;;;;;;;7.90;7.10;;;2.20;90.20;;;;;;4564451;30;20474;-83
2023/01/06 10:48:50;;;;;;;8.27;6.93;;;2.40;90.50;;;;;;4500877;31;20257;-81
2023/01/06 11:13:55;;;;;;;11.47;8.27;;;2.40;87.70;;;;;;4616645;30;20392;-81
2023/01/06 11:34:32;;;;;;;9.93;7.87;;;2.30;89.40;;;;;;4531249;31;20248;-82
2023/01/06 12:10:10;;;;;;;9.93;7.57;;;2.30;90.20;;;;;;4332462;31;20679;-83
2023/01/06 12:35:26;;;;;;;10.20;8.23;;;2.40;90.00;;;;;;4447772;31;20214;-82
2023/01/06 12:55:49;;;;;;;9.63;7.83;;;2.20;89.90;;;;;;4544697;30;20699;-82
2023/01/06 13:41:00;;;;;;;11.70;9.47;;;2.30;90.90;;;;;;4753011;29;20577;-83
2023/01/06 14:21:49;;;;;;;11.87;8.20;;;2.00;91.60;;;;;;4778766;29;20461;-83
2023/01/06 14:57:42;;;;;;;14.00;9.13;;;1.90;92.80;;;;;;4726832;29;20707;-83
2023/01/06 15:02:01;;;;;;;13.37;10.00;;;1.90;92.70;;;;;;4690682;29;20421;-83
2023/01/06 15:27:52;;;;;;;24.53;14.70;;;1.70;94.30;;;;;;4742625;29;20298;-84
2023/01/06 15:57:51;;;;;;;20.20;14.03;;;1.60;95.80;;;;;;4790269;29;20398;-85
2023/01/06 16:23:40;;;;;;;16.43;11.37;;;1.60;95.70;;;;;;4608034;30;20248;-84
2023/01/06 17:09:18;;;;;;;28.83;17.27;;;1.40;99.90;;;;;;4540599;30;20329;-83
2023/01/06 17:29:22;;;;;;;27.73;18.07;;;1.20;99.90;;;;;;4631891;30;20301;-83
2023/01/06 17:59:57;;;;;;;35.97;20.67;;;1.10;99.90;;;;;;4613089;30;20243;-82
2023/01/06 18:20:24;;;;;;;33.73;20.30;;;0.80;99.90;;;;;;4692356;29;20235;-82
2023/01/06 18:45:27;;;;;;;34.50;21.27;;;0.80;99.90;;;;;;4677867;30;20679;-85
2023/01/06 19:10:51;;;;;;;35.77;19.53;;;0.90;99.90;;;;;;4584873;30;20272;-86
2023/01/06 19:41:27;;;;;;;32.87;19.20;;;0.90;99.90;;;;;;4567144;30;20291;-81
2023/01/06 20:21:57;;;;;;;32.70;18.87;;;1.00;99.90;;;;;;4644491;30;20202;-81
2023/01/06 20:52:21;;;;;;;31.10;18.33;;;1.00;99.90;;;;;;4754629;29;20522;-82
2023/01/06 21:17:10;;;;;;;32.37;18.30;;;1.00;99.90;;;;;;4605371;30;20603;-84
2023/01/06 21:37:47;;;;;;;34.13;18.57;;;1.10;99.90;;;;;;4707466;29;20305;-84
2023/01/06 23:24:25;;;;;;;39.63;20.60;;;1.30;99.90;;;;;;4748403;29;20210;-82
2023/01/06 23:49:55;;;;;;;36.47;22.00;;;1.30;99.90;;;;;;4621653;30;20318;-81
